createdAt,value
2023-02-12T00:00:45.265Z,35.30
2023-02-12T00:03:14.469Z,33.20
2023-02-12T00:05:42.681Z,33.57
2023-02-12T00:08:12.196Z,34.27
2023-02-12T00:10:42.948Z,34.40
2023-02-12T00:13:10.749Z,34.57
2023-02-12T00:15:40.167Z,34.50
2023-02-12T00:18:08.054Z,33.13
2023-02-12T00:20:40.517Z,34.13
2023-02-12T00:23:08.648Z,32.70
2023-02-12T00:25:36.389Z,35.00
2023-02-12T00:28:04.118Z,34.33
2023-02-12T00:30:31.898Z,32.73
2023-02-12T00:33:00.490Z,32.23
2023-02-12T00:35:28.290Z,34.97
2023-02-12T00:37:58.214Z,31.80
2023-02-12T00:40:26.248Z,33.07
2023-02-12T00:42:54.175Z,33.77
2023-02-12T00:45:21.951Z,32.93
2023-02-12T00:47:49.888Z,32.10
2023-02-12T00:50:17.854Z,33.87
2023-02-12T00:52:45.605Z,35.57
2023-02-12T00:55:14.994Z,32.73
2023-02-12T00:57:42.747Z,33.87
2023-02-12T01:00:11.776Z,31.87
2023-02-12T01:02:39.685Z,32.67
2023-02-12T01:05:09.005Z,32.60
2023-02-12T01:07:38.513Z,32.57
2023-02-12T01:10:08.514Z,32.57
2023-02-12T01:12:37.589Z,32.50
2023-02-12T01:15:05.998Z,31.10
2023-02-12T01:17:34.276Z,32.07
2023-02-12T01:20:02.065Z,33.57
2023-02-12T01:22:29.903Z,36.20
2023-02-12T01:24:57.806Z,32.37
2023-02-12T01:27:28.575Z,33.00
2023-02-12T01:29:58.598Z,30.77
2023-02-12T01:32:28.833Z,31.83
2023-02-12T01:34:56.592Z,30.43
2023-02-12T01:37:24.358Z,28.97
2023-02-12T01:39:53.589Z,28.80
2023-02-12T01:42:21.315Z,30.63
2023-02-12T01:45:23.036Z,30.73
2023-02-12T01:47:52.238Z,31.27
2023-02-12T01:50:21.701Z,32.40
2023-02-12T01:52:52.619Z,32.43
2023-02-12T01:55:21.463Z,31.83
2023-02-12T01:57:49.846Z,31.07
2023-02-12T02:00:21.147Z,29.93
2023-02-12T02:02:52.549Z,29.93
2023-02-12T02:05:31.783Z,30.70
2023-02-12T02:08:00.159Z,31.43
2023-02-12T02:10:27.894Z,31.77
2023-02-12T02:13:13.049Z,29.77
2023-02-12T02:15:46.523Z,28.97
2023-02-12T02:18:24.236Z,31.60
2023-02-12T02:21:22.634Z,29.50
2023-02-12T02:24:06.051Z,31.37
2023-02-12T02:26:59.354Z,32.73
2023-02-12T02:30:02.916Z,33.77
2023-02-12T02:32:35.591Z,33.00
2023-02-12T02:35:11.940Z,34.90
2023-02-12T02:37:48.647Z,34.67
2023-02-12T02:40:20.863Z,35.07
2023-02-12T02:42:55.832Z,34.73
2023-02-12T02:45:28.401Z,34.03
2023-02-12T02:48:04.416Z,31.97
2023-02-12T02:50:36.763Z,32.23
2023-02-12T02:53:07.180Z,32.60
2023-02-12T02:55:41.463Z,34.10
2023-02-12T02:58:14.567Z,32.47
2023-02-12T03:00:47.215Z,33.37
2023-02-12T03:03:22.927Z,31.40
2023-02-12T03:05:54.069Z,32.93
2023-02-12T03:08:26.971Z,31.83
2023-02-12T03:10:58.552Z,32.90
2023-02-12T03:13:33.173Z,33.87
2023-02-12T03:16:05.517Z,31.27
2023-02-12T03:18:41.607Z,31.10
2023-02-12T03:21:14.711Z,31.30
2023-02-12T03:23:48.098Z,31.00
2023-02-12T03:26:21.892Z,30.67
2023-02-12T03:28:50.161Z,32.53
2023-02-12T03:31:29.329Z,30.70
2023-02-12T03:34:08.373Z,31.70
2023-02-12T03:36:43.092Z,31.77
2023-02-12T03:39:16.180Z,32.00
2023-02-12T03:41:50.497Z,32.47
2023-02-12T03:44:25.312Z,32.63
2023-02-12T03:47:02.245Z,31.93
2023-02-12T03:49:36.048Z,30.40
2023-02-12T03:52:05.195Z,30.13
2023-02-12T03:54:33.264Z,31.37
2023-02-12T03:57:07.363Z,31.43
2023-02-12T03:59:38.646Z,32.10
2023-02-12T04:02:06.520Z,32.20
2023-02-12T04:04:36.135Z,29.73
2023-02-12T04:07:04.157Z,29.87
2023-02-12T04:09:33.067Z,30.87
2023-02-12T04:12:16.558Z,30.70
2023-02-12T04:14:50.792Z,29.63
2023-02-12T04:17:27.675Z,30.50
2023-02-12T04:20:09.821Z,30.03
2023-02-12T04:22:47.516Z,31.03
2023-02-12T04:25:23.097Z,30.27
2023-02-12T04:27:58.482Z,29.90
2023-02-12T04:30:33.044Z,30.57
2023-02-12T04:33:03.618Z,28.33
2023-02-12T04:35:36.245Z,30.33
2023-02-12T04:38:11.188Z,31.63
2023-02-12T04:40:41.326Z,30.03
2023-02-12T04:43:09.844Z,31.10
2023-02-12T04:45:38.969Z,30.27
2023-02-12T04:48:07.581Z,27.97
2023-02-12T04:50:42.071Z,26.23
2023-02-12T04:53:10.753Z,27.97
2023-02-12T04:55:38.624Z,27.60
2023-02-12T04:58:07.033Z,28.97
2023-02-12T05:00:34.904Z,27.80
2023-02-12T05:03:02.772Z,29.80
2023-02-12T05:05:30.865Z,29.83
2023-02-12T05:07:59.988Z,26.70
2023-02-12T05:10:27.886Z,26.77
2023-02-12T05:12:56.508Z,26.77
2023-02-12T05:15:24.371Z,28.60
2023-02-12T05:17:52.102Z,28.17
2023-02-12T05:20:20.118Z,28.60
2023-02-12T05:22:47.858Z,28.37
2023-02-12T05:25:17.033Z,28.30
2023-02-12T05:27:44.732Z,29.87
2023-02-12T05:30:13.297Z,28.83
2023-02-12T05:32:41.046Z,27.43
2023-02-12T05:35:09.411Z,29.47
2023-02-12T05:37:37.647Z,28.93
2023-02-12T05:40:08.687Z,29.43
2023-02-12T05:42:37.756Z,30.10
2023-02-12T05:45:06.384Z,30.23
2023-02-12T05:47:34.089Z,29.83
2023-02-12T05:50:01.837Z,29.53
2023-02-12T05:52:29.525Z,29.47
2023-02-12T05:54:57.340Z,29.50
2023-02-12T05:57:25.050Z,28.57
2023-02-12T05:59:54.419Z,27.43
2023-02-12T06:02:22.111Z,27.37
2023-02-12T06:04:49.916Z,29.10
2023-02-12T06:07:17.688Z,27.30
2023-02-12T06:09:45.565Z,29.23
2023-02-12T06:12:13.411Z,29.43
2023-02-12T06:14:42.644Z,30.17
2023-02-12T06:17:11.727Z,31.00
2023-02-12T06:19:39.561Z,30.67
2023-02-12T06:22:07.274Z,30.13
2023-02-12T06:24:35.209Z,31.90
2023-02-12T06:27:02.999Z,30.57
2023-02-12T06:29:33.344Z,29.83
2023-02-12T06:32:06.058Z,31.53
2023-02-12T06:34:35.524Z,29.20
2023-02-12T06:37:03.296Z,30.27
2023-02-12T06:39:31.083Z,29.97
2023-02-12T06:41:58.902Z,30.37
2023-02-12T06:44:26.736Z,29.83
2023-02-12T06:46:54.646Z,31.20
2023-02-12T06:49:22.454Z,29.77
2023-02-12T06:51:51.669Z,30.30
2023-02-12T06:54:19.643Z,29.33
2023-02-12T06:56:47.448Z,29.20
2023-02-12T06:59:17.478Z,29.67
2023-02-12T07:01:45.447Z,29.50
2023-02-12T07:04:13.487Z,29.63
2023-02-12T07:06:41.922Z,31.67
2023-02-12T07:09:11.180Z,31.13
2023-02-12T07:11:39.178Z,30.83
2023-02-12T07:14:07.783Z,31.20
2023-02-12T07:16:35.654Z,27.87
2023-02-12T07:19:05.362Z,30.07
2023-02-12T07:21:35.469Z,30.17
2023-02-12T07:24:03.194Z,29.73
2023-02-12T07:26:32.289Z,29.80
2023-02-12T07:29:00.177Z,29.60
2023-02-12T07:31:28.077Z,29.43
2023-02-12T07:34:00.384Z,30.03
2023-02-12T07:36:30.407Z,30.83
2023-02-12T07:38:58.848Z,33.77
2023-02-12T07:41:29.329Z,32.70
2023-02-12T07:44:00.247Z,31.67
2023-02-12T07:46:31.153Z,33.73
2023-02-12T07:49:05.416Z,31.93
2023-02-12T07:51:33.790Z,34.37
2023-02-12T07:54:02.378Z,36.53
2023-02-12T07:56:32.656Z,34.33
2023-02-12T07:59:03.410Z,33.63
2023-02-12T08:01:35.277Z,32.80
2023-02-12T08:04:06.581Z,32.87
2023-02-12T08:06:40.543Z,32.67
2023-02-12T08:09:12.521Z,32.50
2023-02-12T08:11:41.826Z,32.10
2023-02-12T08:14:13.449Z,33.67
2023-02-12T08:16:42.460Z,32.73
2023-02-12T08:19:19.038Z,34.20
2023-02-12T08:21:50.991Z,34.17
2023-02-12T08:24:18.989Z,34.43
2023-02-12T08:26:46.874Z,33.03
2023-02-12T08:29:18.041Z,35.00
2023-02-12T08:31:48.710Z,34.03
2023-02-12T08:34:19.618Z,35.37
2023-02-12T08:36:48.830Z,34.07
2023-02-12T08:39:17.976Z,35.47
2023-02-12T08:41:46.340Z,34.83
2023-02-12T08:44:16.480Z,35.30
2023-02-12T08:46:46.941Z,32.80
2023-02-12T08:49:17.113Z,33.90
2023-02-12T08:51:48.640Z,34.17
2023-02-12T08:54:20.966Z,35.10
2023-02-12T08:56:51.893Z,35.70
2023-02-12T08:59:21.340Z,36.33
2023-02-12T09:01:56.164Z,35.90
2023-02-12T09:04:25.889Z,37.17
2023-02-12T09:06:54.397Z,36.53
2023-02-12T09:09:22.318Z,36.60
2023-02-12T09:11:50.450Z,36.07
2023-02-12T09:14:23.616Z,37.97
2023-02-12T09:16:53.518Z,38.83
2023-02-12T09:19:21.628Z,38.23
2023-02-12T09:21:55.247Z,38.50
2023-02-12T09:24:23.720Z,38.40
2023-02-12T09:26:51.455Z,38.27
2023-02-12T09:29:19.137Z,38.90
2023-02-12T09:31:47.033Z,36.93
2023-02-12T09:34:16.258Z,38.87
2023-02-12T09:36:43.970Z,38.03
2023-02-12T09:39:11.667Z,36.40
2023-02-12T09:41:55.351Z,38.90
2023-02-12T09:44:30.940Z,39.83
2023-02-12T09:47:02.357Z,38.23
2023-02-12T09:49:48.333Z,40.67
2023-02-12T09:52:19.289Z,37.13
2023-02-12T09:54:48.943Z,37.93
2023-02-12T09:57:22.145Z,39.03
2023-02-12T09:59:55.501Z,35.97
2023-02-12T10:02:26.556Z,36.43
2023-02-12T10:05:01.124Z,35.77
2023-02-12T10:07:42.269Z,37.63
2023-02-12T10:10:24.675Z,34.50
2023-02-12T10:12:56.706Z,34.70
2023-02-12T10:15:47.205Z,36.23
2023-02-12T10:19:03.051Z,36.47
2023-02-12T10:21:45.102Z,35.03
2023-02-12T10:24:29.389Z,34.10
2023-02-12T10:27:01.120Z,32.87
2023-02-12T10:29:34.989Z,34.43
2023-02-12T10:32:06.388Z,32.28
2023-02-12T10:34:36.246Z,34.87
2023-02-12T10:37:12.616Z,33.50
2023-02-12T10:39:44.775Z,33.13
2023-02-12T10:42:17.393Z,33.50
2023-02-12T10:44:45.324Z,32.53
2023-02-12T10:47:16.807Z,33.97
2023-02-12T10:49:44.576Z,31.77
2023-02-12T10:52:31.445Z,31.27
2023-02-12T10:54:59.189Z,32.30
2023-02-12T10:57:35.200Z,30.77
2023-02-12T11:00:23.890Z,32.53
2023-02-12T11:03:07.372Z,30.43
2023-02-12T11:05:37.294Z,30.33
2023-02-12T11:08:07.648Z,28.30
2023-02-12T11:10:40.134Z,29.43
2023-02-12T11:13:24.240Z,27.03
2023-02-12T11:15:52.562Z,26.27
2023-02-12T11:18:26.200Z,27.73
2023-02-12T11:20:58.469Z,25.13
2023-02-12T11:23:29.820Z,26.93
2023-02-12T11:26:00.631Z,24.73
2023-02-12T11:28:29.551Z,21.60
2023-02-12T11:30:59.558Z,18.13
2023-02-12T11:33:33.192Z,16.60
2023-02-12T11:36:06.889Z,21.87
2023-02-12T11:38:40.034Z,21.40
2023-02-12T11:41:21.996Z,21.90
2023-02-12T11:43:51.906Z,22.00
2023-02-12T11:46:25.366Z,23.57
2023-02-12T11:48:55.047Z,23.43
2023-02-12T11:51:29.244Z,25.00
2023-02-12T11:54:02.027Z,23.90
2023-02-12T11:56:43.457Z,23.27
2023-02-12T11:59:22.656Z,23.30
2023-02-12T12:01:55.096Z,25.27
2023-02-12T12:04:25.396Z,22.57
2023-02-12T12:06:56.676Z,22.93
2023-02-12T12:09:29.262Z,24.40
2023-02-12T12:12:03.902Z,24.80
2023-02-12T12:14:57.164Z,23.03
2023-02-12T12:17:46.308Z,23.87
2023-02-12T12:20:20.970Z,22.07
2023-02-12T12:22:54.784Z,22.35
2023-02-12T12:25:27.867Z,21.77
2023-02-12T12:28:08.149Z,22.30
2023-02-12T12:30:49.521Z,19.80
2023-02-12T12:33:22.209Z,20.43
2023-02-12T12:36:05.367Z,20.37
2023-02-12T12:38:45.638Z,18.25
2023-02-12T12:41:26.020Z,19.40
2023-02-12T12:44:06.017Z,18.00
2023-02-12T12:46:49.047Z,18.67
2023-02-12T12:49:52.420Z,19.87
2023-02-12T12:52:39.250Z,19.73
2023-02-12T12:55:42.006Z,20.27
2023-02-12T12:58:23.185Z,17.77
2023-02-12T13:01:06.644Z,19.03
2023-02-12T13:03:54.894Z,18.90
2023-02-12T13:06:39.375Z,18.00
2023-02-12T13:09:30.188Z,18.17
2023-02-12T13:12:14.994Z,19.47
2023-02-12T13:14:52.406Z,18.30
2023-02-12T13:17:25.956Z,19.87
2023-02-12T13:20:02.333Z,19.13
2023-02-12T13:22:39.412Z,19.73
2023-02-12T13:25:22.745Z,18.10
2023-02-12T13:27:53.684Z,19.17
2023-02-12T13:30:28.153Z,18.37
2023-02-12T13:33:08.566Z,19.43
2023-02-12T13:35:40.952Z,18.70
2023-02-12T13:38:16.170Z,18.33
2023-02-12T13:40:44.049Z,19.20
2023-02-12T13:43:23.425Z,18.85
2023-02-12T13:45:59.871Z,16.93
2023-02-12T13:48:45.312Z,18.38
2023-02-12T13:51:22.657Z,17.03
2023-02-12T13:54:05.117Z,19.27
2023-02-12T13:56:41.424Z,18.13
2023-02-12T13:59:44.349Z,18.17
2023-02-12T14:02:45.804Z,17.08
2023-02-12T14:05:33.997Z,19.70
2023-02-12T14:08:05.485Z,19.30
2023-02-12T14:10:37.259Z,18.37
2023-02-12T14:13:19.455Z,19.17
2023-02-12T14:15:52.523Z,18.40
2023-02-12T14:18:28.541Z,17.17
2023-02-12T14:21:44.832Z,18.42
2023-02-12T14:24:49.496Z,18.40
2023-02-12T14:27:30.494Z,18.13
2023-02-12T14:30:17.296Z,18.07
2023-02-12T14:33:16.418Z,18.03
2023-02-12T14:35:46.759Z,17.20
2023-02-12T14:39:00.452Z,18.10
2023-02-12T14:41:41.714Z,18.60
2023-02-12T14:44:42.158Z,17.17
2023-02-12T14:47:52.310Z,16.93
2023-02-12T14:50:25.912Z,16.57
2023-02-12T14:53:01.322Z,15.00
2023-02-12T14:55:34.343Z,16.20
2023-02-12T14:58:05.851Z,14.60
2023-02-12T15:00:40.087Z,15.15
2023-02-12T15:03:25.205Z,15.02
2023-02-12T15:06:01.988Z,16.13
2023-02-12T15:08:36.827Z,15.60
2023-02-12T15:11:32.157Z,15.57
2023-02-12T15:14:04.489Z,15.40
2023-02-12T15:16:42.974Z,16.80
2023-02-12T15:19:23.437Z,17.40
2023-02-12T15:21:54.403Z,16.60
2023-02-12T15:24:25.140Z,18.17
2023-02-12T15:26:55.154Z,18.67
2023-02-12T15:29:27.283Z,17.20
2023-02-12T15:31:58.545Z,18.17
2023-02-12T15:34:31.163Z,18.53
2023-02-12T15:37:01.169Z,17.80
2023-02-12T15:39:41.035Z,15.13
2023-02-12T15:42:28.186Z,14.50
2023-02-12T15:45:12.324Z,15.53
2023-02-12T15:47:41.684Z,15.90
2023-02-12T15:50:13.650Z,15.77
2023-02-12T15:52:44.343Z,15.90
2023-02-12T15:55:19.054Z,14.87
2023-02-12T15:57:51.450Z,15.00
2023-02-12T16:00:30.424Z,15.90
2023-02-12T16:02:58.288Z,16.05
2023-02-12T16:05:27.515Z,15.43
2023-02-12T16:07:55.877Z,15.63
2023-02-12T16:10:27.106Z,15.70
2023-02-12T16:12:55.539Z,17.03
2023-02-12T16:15:30.709Z,18.10
2023-02-12T16:17:59.845Z,18.10
2023-02-12T16:20:31.034Z,18.27
2023-02-12T16:23:00.751Z,17.92
2023-02-12T16:25:32.292Z,17.53
2023-02-12T16:28:04.184Z,17.83
2023-02-12T16:30:34.819Z,18.97
2023-02-12T16:33:03.157Z,18.73
2023-02-12T16:35:32.860Z,18.93
2023-02-12T16:38:25.763Z,21.07
2023-02-12T16:41:24.525Z,19.90
2023-02-12T16:44:21.961Z,17.23
2023-02-12T16:46:54.973Z,18.83
2023-02-12T16:49:25.125Z,17.70
2023-02-12T16:51:53.976Z,17.73
2023-02-12T16:54:30.594Z,19.13
2023-02-12T16:57:00.852Z,19.00
2023-02-12T16:59:29.497Z,18.80
2023-02-12T17:01:59.285Z,17.90
2023-02-12T17:04:27.162Z,17.73
2023-02-12T17:06:55.649Z,17.93
2023-02-12T17:09:23.745Z,18.83
2023-02-12T17:11:51.490Z,19.30
2023-02-12T17:14:21.581Z,20.02
2023-02-12T17:16:49.504Z,19.98
2023-02-12T17:19:17.361Z,19.33
2023-02-12T17:21:49.374Z,18.30
2023-02-12T17:24:20.947Z,18.83
2023-02-12T17:26:50.768Z,21.40
2023-02-12T17:29:22.444Z,19.77
2023-02-12T17:31:51.682Z,19.77
2023-02-12T17:34:19.484Z,20.33
2023-02-12T17:36:47.660Z,20.43
2023-02-12T17:39:16.868Z,20.20
2023-02-12T17:41:47.836Z,19.70
2023-02-12T17:44:16.498Z,19.90
2023-02-12T17:46:49.421Z,20.97
2023-02-12T17:49:17.371Z,20.23
2023-02-12T17:51:45.564Z,18.97
2023-02-12T17:54:13.940Z,19.47
2023-02-12T17:56:41.803Z,21.27
2023-02-12T17:59:11.166Z,20.73
2023-02-12T18:01:40.379Z,20.97
2023-02-12T18:04:13.187Z,19.07
2023-02-12T18:06:41.053Z,21.20
2023-02-12T18:09:11.818Z,19.87
2023-02-12T18:11:50.824Z,21.00
2023-02-12T18:14:21.005Z,20.53
2023-02-12T18:16:48.938Z,21.05
2023-02-12T18:19:18.033Z,20.80
2023-02-12T18:21:45.831Z,20.10
2023-02-12T18:24:13.636Z,20.83
2023-02-12T18:26:41.444Z,21.00
2023-02-12T18:29:09.294Z,19.10
2023-02-12T18:31:37.490Z,20.57
2023-02-12T18:34:06.065Z,20.13
2023-02-12T18:36:35.792Z,21.43
2023-02-12T18:39:06.378Z,20.55
2023-02-12T18:41:35.725Z,20.50
2023-02-12T18:44:05.314Z,19.83
2023-02-12T18:46:33.340Z,16.33
2023-02-12T18:49:01.989Z,12.60
2023-02-12T18:51:32.570Z,9.30
2023-02-12T18:54:04.342Z,9.27
2023-02-12T18:56:40.052Z,7.60
2023-02-12T18:59:11.616Z,8.93
2023-02-12T19:01:41.221Z,8.73
2023-02-12T19:04:12.607Z,8.97
2023-02-12T19:06:44.007Z,8.90
2023-02-12T19:09:16.526Z,8.47
2023-02-12T19:11:47.832Z,7.47
2023-02-12T19:14:16.394Z,7.60
2023-02-12T19:16:45.531Z,7.63
2023-02-12T19:19:14.641Z,7.67
2023-02-12T19:21:42.676Z,7.57
2023-02-12T19:24:17.232Z,7.73
2023-02-12T19:26:45.880Z,8.07
2023-02-12T19:29:14.396Z,6.80
2023-02-12T19:31:46.372Z,7.07
2023-02-12T19:34:19.469Z,6.80
2023-02-12T19:36:48.954Z,9.20
2023-02-12T19:39:20.816Z,8.53
2023-02-12T19:41:49.155Z,7.30
2023-02-12T19:44:20.185Z,7.23
2023-02-12T19:46:48.815Z,6.33
2023-02-12T19:49:18.335Z,7.70
2023-02-12T19:51:46.196Z,7.60
2023-02-12T19:54:15.584Z,7.97
2023-02-12T19:56:45.405Z,7.60
2023-02-12T19:59:14.400Z,7.30
2023-02-12T20:01:42.225Z,7.87
2023-02-12T20:04:12.181Z,7.10
2023-02-12T20:06:41.914Z,8.37
2023-02-12T20:09:13.728Z,8.00
2023-02-12T20:11:41.968Z,7.50
2023-02-12T20:14:13.146Z,7.83
2023-02-12T20:16:43.756Z,8.03
2023-02-12T20:19:14.197Z,7.87
2023-02-12T20:21:43.405Z,8.60
2023-02-12T20:24:11.302Z,8.70
2023-02-12T20:26:39.384Z,8.10
2023-02-12T20:29:07.779Z,7.82
2023-02-12T20:31:38.500Z,8.30
2023-02-12T20:34:08.382Z,7.50
2023-02-12T20:36:38.423Z,8.37
2023-02-12T20:39:07.491Z,8.50
2023-02-12T20:41:37.099Z,8.87
2023-02-12T20:44:06.577Z,8.53
2023-02-12T20:46:39.249Z,9.07
2023-02-12T20:49:07.357Z,9.13
2023-02-12T20:51:35.578Z,9.17
2023-02-12T20:54:04.006Z,8.97
2023-02-12T20:56:34.329Z,7.70
2023-02-12T20:59:02.920Z,8.80
2023-02-12T21:01:33.048Z,8.60
2023-02-12T21:04:05.279Z,8.70
2023-02-12T21:06:34.044Z,8.13
2023-02-12T21:09:02.316Z,9.20
2023-02-12T21:11:31.001Z,9.40
2023-02-12T21:14:18.414Z,9.18
2023-02-12T21:16:47.998Z,9.27
2023-02-12T21:19:18.028Z,9.63
2023-02-12T21:21:47.943Z,8.87
2023-02-12T21:24:18.820Z,8.80
2023-02-12T21:26:46.737Z,8.73
2023-02-12T21:29:16.326Z,8.60
2023-02-12T21:31:47.717Z,8.97
2023-02-12T21:34:19.023Z,8.73
2023-02-12T21:36:50.726Z,8.50
2023-02-12T21:39:24.274Z,8.90
2023-02-12T21:41:53.198Z,8.83
2023-02-12T21:44:21.978Z,7.93
2023-02-12T21:46:50.123Z,7.13
2023-02-12T21:49:28.775Z,7.50
2023-02-12T21:51:58.471Z,7.37
2023-02-12T21:54:27.739Z,7.53
2023-02-12T21:56:56.547Z,7.57
2023-02-12T21:59:24.887Z,8.03
2023-02-12T22:01:55.276Z,7.47
2023-02-12T22:04:24.510Z,7.57
2023-02-12T22:06:56.513Z,7.72
2023-02-12T22:09:26.362Z,7.07
2023-02-12T22:11:54.122Z,7.10
2023-02-12T22:14:23.086Z,7.07
2023-02-12T22:16:51.794Z,7.40
2023-02-12T22:19:21.893Z,6.72
2023-02-12T22:21:52.519Z,7.17
2023-02-12T22:24:21.382Z,7.10
2023-02-12T22:26:49.210Z,6.40
2023-02-12T22:29:17.768Z,7.23
2023-02-12T22:31:47.763Z,6.67
2023-02-12T22:34:17.868Z,6.50
2023-02-12T22:36:49.824Z,6.83
2023-02-12T22:39:19.194Z,7.57
2023-02-12T22:41:47.540Z,7.78
2023-02-12T22:44:16.286Z,7.30
2023-02-12T22:46:44.688Z,7.77
2023-02-12T22:49:13.059Z,7.73
2023-02-12T22:51:41.378Z,7.77
2023-02-12T22:54:13.243Z,7.73
2023-02-12T22:56:43.254Z,8.27
2023-02-12T22:59:11.977Z,8.15
2023-02-12T23:01:40.449Z,7.80
2023-02-12T23:04:08.536Z,8.45
2023-02-12T23:06:36.381Z,8.07
2023-02-12T23:09:05.385Z,8.03
2023-02-12T23:11:34.378Z,8.10
2023-02-12T23:14:03.517Z,8.97
2023-02-12T23:16:31.332Z,9.23
2023-02-12T23:19:01.016Z,8.83
2023-02-12T23:21:29.689Z,9.13
2023-02-12T23:23:58.954Z,9.10
2023-02-12T23:26:27.637Z,9.60
2023-02-12T23:28:56.261Z,8.53
2023-02-12T23:31:26.037Z,9.07
2023-02-12T23:33:53.882Z,8.97
2023-02-12T23:36:22.061Z,8.83
2023-02-12T23:38:49.861Z,8.53
2023-02-12T23:41:17.672Z,8.53
2023-02-12T23:43:45.432Z,8.97
2023-02-12T23:46:13.244Z,9.93
2023-02-12T23:48:42.524Z,9.27
2023-02-12T23:51:10.315Z,9.40
2023-02-12T23:53:38.203Z,10.20
2023-02-12T23:56:06.862Z,9.37
2023-02-12T23:58:34.641Z,9.13
